createdAt,value
2022-11-28T00:01:37.770Z,64.78
2022-11-28T00:04:05.757Z,65.36
2022-11-28T00:06:32.710Z,64.63
2022-11-28T00:09:00.030Z,63.06
2022-11-28T00:11:27.164Z,63.71
2022-11-28T00:13:54.684Z,64.68
2022-11-28T00:16:23.106Z,63.71
2022-11-28T00:18:51.953Z,63.12
2022-11-28T00:21:19.554Z,63.88
2022-11-28T00:23:47.159Z,63.16
2022-11-28T00:26:26.410Z,63.26
2022-11-28T00:28:57.569Z,63.08
2022-11-28T00:31:27.559Z,64.01
2022-11-28T00:33:54.924Z,63.11
2022-11-28T00:36:22.344Z,63.92
2022-11-28T00:38:52.268Z,63.66
2022-11-28T00:41:24.139Z,64.68
2022-11-28T00:43:53.947Z,64.54
2022-11-28T00:46:22.095Z,63.99
2022-11-28T00:48:49.192Z,63.72
2022-11-28T00:51:22.011Z,63.67
2022-11-28T00:53:51.178Z,63.31
2022-11-28T00:56:22.386Z,62.49
2022-11-28T00:58:49.874Z,62.58
2022-11-28T01:01:31.431Z,63.25
2022-11-28T01:04:00.837Z,63.29
2022-11-28T01:06:31.297Z,63.52
2022-11-28T01:09:04.195Z,63.24
2022-11-28T01:11:31.124Z,63.18
2022-11-28T01:14:00.222Z,63.21
2022-11-28T01:16:28.715Z,64.20
2022-11-28T01:18:55.960Z,62.67
2022-11-28T01:21:23.190Z,63.72
2022-11-28T01:23:49.857Z,63.25
2022-11-28T01:26:23.528Z,63.39
2022-11-28T01:28:50.683Z,64.38
2022-11-28T01:31:20.636Z,63.72
2022-11-28T01:33:47.868Z,63.53
2022-11-28T01:36:15.860Z,62.88
2022-11-28T01:38:42.616Z,63.45
2022-11-28T01:41:10.468Z,63.55
2022-11-28T01:43:38.405Z,62.85
2022-11-28T01:46:06.207Z,62.11
2022-11-28T01:48:37.462Z,62.92
2022-11-28T01:51:07.244Z,62.80
2022-11-28T01:53:38.168Z,63.26
2022-11-28T01:56:27.070Z,62.05
2022-11-28T01:58:57.567Z,62.18
2022-11-28T02:01:25.810Z,62.31
2022-11-28T02:03:54.305Z,62.93
2022-11-28T02:06:24.380Z,63.02
2022-11-28T02:08:55.684Z,61.42
2022-11-28T02:11:41.128Z,62.81
2022-11-28T02:14:15.694Z,63.83
2022-11-28T02:17:00.912Z,64.12
2022-11-28T02:19:27.575Z,62.75
2022-11-28T02:22:35.787Z,62.78
2022-11-28T02:25:17.406Z,63.51
2022-11-28T02:27:49.939Z,63.44
2022-11-28T02:30:35.248Z,64.77
2022-11-28T02:33:10.011Z,64.36
2022-11-28T02:36:14.107Z,63.87
2022-11-28T02:38:49.899Z,63.01
2022-11-28T02:41:32.039Z,63.21
2022-11-28T02:44:24.023Z,64.17
2022-11-28T02:47:00.041Z,63.44
2022-11-28T02:49:36.656Z,64.08
2022-11-28T02:52:44.069Z,63.97
2022-11-28T02:55:12.399Z,64.31
2022-11-28T02:57:41.753Z,64.38
2022-11-28T03:00:34.898Z,63.11
2022-11-28T03:03:07.685Z,62.81
2022-11-28T03:05:57.922Z,63.14
2022-11-28T03:08:45.210Z,62.79
2022-11-28T03:11:43.302Z,63.50
2022-11-28T03:14:36.471Z,63.09
2022-11-28T03:17:27.685Z,62.53
2022-11-28T03:20:06.617Z,63.05
2022-11-28T03:22:41.088Z,63.35
2022-11-28T03:25:36.853Z,62.68
2022-11-28T03:28:09.195Z,62.52
2022-11-28T03:30:52.617Z,61.65
2022-11-28T03:33:24.393Z,63.66
2022-11-28T03:35:58.721Z,63.75
2022-11-28T03:38:35.606Z,63.48
2022-11-28T03:41:10.932Z,63.49
2022-11-28T03:43:44.223Z,63.00
2022-11-28T03:46:14.558Z,64.89
2022-11-28T03:48:48.911Z,64.28
2022-11-28T03:51:25.791Z,64.36
2022-11-28T03:53:56.341Z,64.36
2022-11-28T03:56:30.902Z,63.44
2022-11-28T03:59:06.367Z,64.17
2022-11-28T04:01:35.853Z,64.18
2022-11-28T04:04:58.433Z,64.42
2022-11-28T04:08:00.719Z,63.26
2022-11-28T04:10:44.000Z,64.73
2022-11-28T04:13:34.564Z,64.96
2022-11-28T04:16:20.491Z,64.92
2022-11-28T04:19:16.975Z,63.41
2022-11-28T04:21:50.919Z,64.48
2022-11-28T04:24:28.986Z,64.69
2022-11-28T04:27:11.744Z,64.26
2022-11-28T04:29:44.554Z,64.03
2022-11-28T04:32:12.874Z,64.43
2022-11-28T04:37:28.163Z,64.38
2022-11-28T04:39:56.389Z,64.22
2022-11-28T04:42:52.452Z,64.13
2022-11-28T04:45:32.551Z,63.89
2022-11-28T04:48:00.010Z,64.24
2022-11-28T04:50:43.713Z,64.99
2022-11-28T04:53:18.900Z,64.19
2022-11-28T04:55:51.476Z,65.27
2022-11-28T04:58:38.203Z,64.42
2022-11-28T05:01:09.035Z,64.43
2022-11-28T05:03:41.208Z,64.65
2022-11-28T05:06:09.370Z,64.24
2022-11-28T05:08:36.075Z,64.41
2022-11-28T05:11:02.785Z,64.95
2022-11-28T05:13:29.402Z,65.06
2022-11-28T05:16:01.296Z,64.50
2022-11-28T05:18:37.399Z,64.18
2022-11-28T05:21:06.810Z,63.64
2022-11-28T05:23:33.620Z,64.25
2022-11-28T05:26:05.772Z,64.21
2022-11-28T05:28:34.796Z,64.38
2022-11-28T05:31:05.501Z,64.03
2022-11-28T05:33:33.091Z,64.31
2022-11-28T05:36:13.426Z,63.76
2022-11-28T05:38:42.558Z,63.96
2022-11-28T05:41:10.368Z,63.71
2022-11-28T05:43:37.163Z,64.16
2022-11-28T05:46:07.117Z,65.12
2022-11-28T05:48:33.943Z,64.34
2022-11-28T05:51:04.402Z,64.56
2022-11-28T05:53:31.153Z,64.81
2022-11-28T05:55:57.815Z,64.61
2022-11-28T05:58:24.478Z,64.48
2022-11-28T06:00:51.187Z,63.43
2022-11-28T06:03:17.896Z,64.02
2022-11-28T06:05:44.680Z,64.62
2022-11-28T06:08:12.645Z,63.96
2022-11-28T06:10:55.588Z,63.94
2022-11-28T06:13:22.299Z,64.39
2022-11-28T06:15:52.041Z,64.59
2022-11-28T06:18:18.939Z,65.16
2022-11-28T06:20:45.599Z,65.51
2022-11-28T06:23:14.633Z,65.73
2022-11-28T06:25:41.301Z,65.79
2022-11-28T06:28:11.131Z,65.79
2022-11-28T06:30:37.934Z,65.23
2022-11-28T06:33:06.633Z,65.74
2022-11-28T06:35:33.534Z,65.34
2022-11-28T06:38:00.199Z,65.75
2022-11-28T06:40:26.954Z,65.21
2022-11-28T06:42:54.329Z,65.69
2022-11-28T06:45:20.991Z,65.19
2022-11-28T06:47:48.179Z,66.04
2022-11-28T06:50:14.979Z,65.68
2022-11-28T06:52:41.600Z,65.32
2022-11-28T06:55:08.782Z,64.81
2022-11-28T06:57:41.689Z,65.06
2022-11-28T07:00:10.921Z,64.16
2022-11-28T07:02:38.531Z,65.03
2022-11-28T07:05:05.380Z,64.87
2022-11-28T07:07:32.271Z,65.26
2022-11-28T07:09:58.981Z,65.57
2022-11-28T07:12:28.771Z,64.98
2022-11-28T07:14:55.861Z,64.83
2022-11-28T07:17:23.188Z,64.05
2022-11-28T07:19:54.882Z,64.65
2022-11-28T07:22:22.345Z,64.48
2022-11-28T07:24:48.997Z,63.93
2022-11-28T07:27:15.708Z,64.19
2022-11-28T07:29:42.653Z,64.10
2022-11-28T07:34:50.479Z,64.34
2022-11-28T07:37:17.176Z,63.75
2022-11-28T07:39:46.581Z,63.81
2022-11-28T07:42:13.350Z,65.18
2022-11-28T07:44:40.052Z,64.02
2022-11-28T07:47:06.772Z,63.76
2022-11-28T07:49:36.741Z,64.18
2022-11-28T07:52:06.477Z,63.73
2022-11-28T07:54:58.981Z,61.37
2022-11-28T07:57:25.736Z,62.56
2022-11-28T07:59:55.504Z,62.04
2022-11-28T08:02:22.245Z,62.36
2022-11-28T08:04:53.937Z,62.16
2022-11-28T08:07:22.284Z,62.50
2022-11-28T08:09:48.998Z,63.11
2022-11-28T08:12:15.705Z,64.06
2022-11-28T08:14:42.665Z,62.77
2022-11-28T08:17:09.795Z,63.85
2022-11-28T08:19:37.076Z,63.07
2022-11-28T08:22:03.751Z,62.22
2022-11-28T08:24:30.444Z,63.18
2022-11-28T08:26:57.258Z,62.92
2022-11-28T08:29:23.912Z,63.17
2022-11-28T08:31:50.625Z,63.46
2022-11-28T08:34:17.300Z,62.37
2022-11-28T08:36:44.184Z,63.50
2022-11-28T08:39:27.036Z,62.66
2022-11-28T08:41:57.303Z,63.34
2022-11-28T08:44:24.390Z,63.22
2022-11-28T08:46:51.137Z,62.80
2022-11-28T08:49:17.914Z,61.82
2022-11-28T08:51:44.707Z,62.09
2022-11-28T08:54:11.472Z,63.53
2022-11-28T08:56:39.644Z,63.22
2022-11-28T08:59:09.675Z,63.89
2022-11-28T09:01:36.520Z,63.10
2022-11-28T09:04:04.262Z,63.66
2022-11-28T09:06:31.129Z,63.81
2022-11-28T09:08:57.888Z,64.46
2022-11-28T09:11:24.691Z,63.89
2022-11-28T09:13:51.555Z,64.04
2022-11-28T09:16:18.876Z,63.51
2022-11-28T09:18:45.675Z,63.82
2022-11-28T09:21:18.204Z,63.82
2022-11-28T09:23:47.665Z,64.05
2022-11-28T09:26:22.134Z,64.53
2022-11-28T09:28:53.056Z,64.52
2022-11-28T09:31:20.122Z,63.99
2022-11-28T09:33:48.370Z,64.15
2022-11-28T09:36:25.561Z,63.29
2022-11-28T09:38:52.299Z,63.66
2022-11-28T09:41:40.732Z,63.27
2022-11-28T09:44:10.476Z,64.50
2022-11-28T09:46:38.871Z,63.49
2022-11-28T09:49:41.136Z,62.75
2022-11-28T09:52:15.626Z,62.92
2022-11-28T09:54:52.546Z,63.03
2022-11-28T09:57:34.402Z,63.42
2022-11-28T10:00:01.708Z,63.03
2022-11-28T10:02:46.849Z,63.11
2022-11-28T10:05:23.451Z,64.23
2022-11-28T10:07:56.243Z,63.28
2022-11-28T10:10:41.862Z,62.81
2022-11-28T10:13:32.664Z,61.80
2022-11-28T10:16:43.635Z,61.68
2022-11-28T10:19:46.214Z,62.80
2022-11-28T10:22:11.687Z,62.86
2022-11-28T10:24:43.220Z,61.76
2022-11-28T10:27:13.835Z,62.54
2022-11-28T10:29:59.267Z,61.72
2022-11-28T10:32:33.076Z,62.18
2022-11-28T10:35:14.175Z,62.20
2022-11-28T10:37:41.118Z,62.38
2022-11-28T10:40:35.330Z,62.92
2022-11-28T10:43:12.309Z,61.96
2022-11-28T10:46:11.056Z,62.01
2022-11-28T10:49:22.233Z,61.65
2022-11-28T10:52:04.114Z,61.12
2022-11-28T10:54:59.835Z,60.71
2022-11-28T10:57:26.497Z,61.14
2022-11-28T11:00:15.896Z,61.91
2022-11-28T11:02:57.263Z,60.67
2022-11-28T11:05:30.883Z,62.41
2022-11-28T11:08:02.511Z,61.86
2022-11-28T11:10:38.547Z,61.62
2022-11-28T11:13:20.878Z,61.82
2022-11-28T11:15:53.294Z,61.63
2022-11-28T11:18:28.211Z,61.61
2022-11-28T11:21:08.935Z,61.94
2022-11-28T11:23:38.425Z,61.30
2022-11-28T11:26:10.422Z,61.24
2022-11-28T11:28:50.454Z,60.58
2022-11-28T11:31:23.506Z,60.96
2022-11-28T11:34:11.899Z,61.14
2022-11-28T11:36:38.759Z,60.95
2022-11-28T11:39:09.762Z,61.70
2022-11-28T11:41:43.956Z,61.02
2022-11-28T11:44:13.696Z,61.31
2022-11-28T11:46:54.794Z,60.64
2022-11-28T11:49:44.158Z,60.16
2022-11-28T11:52:27.537Z,60.04
2022-11-28T11:54:57.309Z,60.68
2022-11-28T11:57:54.993Z,60.39
2022-11-28T12:00:28.329Z,60.62
2022-11-28T12:02:59.350Z,60.77
2022-11-28T12:05:52.481Z,60.45
2022-11-28T12:08:52.440Z,60.49
2022-11-28T12:11:29.537Z,60.32
2022-11-28T12:14:03.300Z,60.01
2022-11-28T12:16:35.873Z,60.19
2022-11-28T12:19:22.681Z,60.24
2022-11-28T12:22:12.217Z,60.04
2022-11-28T12:24:49.147Z,59.64
2022-11-28T12:27:53.094Z,59.52
2022-11-28T12:30:19.868Z,60.00
2022-11-28T12:32:56.087Z,60.53
2022-11-28T12:35:42.286Z,60.69
2022-11-28T12:38:23.666Z,60.08
2022-11-28T12:41:19.109Z,59.94
2022-11-28T12:44:13.644Z,60.34
2022-11-28T12:46:46.360Z,61.08
2022-11-28T12:49:21.933Z,61.21
2022-11-28T12:52:03.879Z,59.84
2022-11-28T12:54:52.037Z,59.90
2022-11-28T12:57:53.095Z,60.18
2022-11-28T13:00:26.246Z,60.24
2022-11-28T13:03:22.239Z,60.99
2022-11-28T13:05:58.898Z,60.83
2022-11-28T13:08:34.609Z,60.27
2022-11-28T13:11:38.701Z,59.71
2022-11-28T13:14:07.302Z,61.27
2022-11-28T13:16:52.800Z,60.85
2022-11-28T13:20:08.812Z,59.75
2022-11-28T13:22:42.498Z,60.78
2022-11-28T13:25:09.446Z,60.74
2022-11-28T13:27:54.759Z,61.94
2022-11-28T13:30:27.521Z,60.83
2022-11-28T13:33:26.375Z,61.39
2022-11-28T13:35:54.163Z,60.56
2022-11-28T13:38:49.327Z,60.69
2022-11-28T13:41:43.930Z,61.06
2022-11-28T13:44:23.487Z,63.23
2022-11-28T13:46:51.644Z,61.80
2022-11-28T13:49:27.383Z,62.17
2022-11-28T13:52:18.933Z,62.26
2022-11-28T13:54:52.640Z,61.56
2022-11-28T13:57:38.160Z,62.03
2022-11-28T14:00:24.164Z,62.26
2022-11-28T14:02:58.329Z,62.32
2022-11-28T14:05:36.341Z,61.72
2022-11-28T14:08:05.729Z,63.05
2022-11-28T14:10:51.469Z,61.84
2022-11-28T14:13:48.338Z,62.17
2022-11-28T14:16:45.503Z,62.38
2022-11-28T14:19:38.592Z,61.49
2022-11-28T14:22:35.490Z,62.28
2022-11-28T14:25:28.567Z,62.18
2022-11-28T14:28:02.325Z,62.59
2022-11-28T14:30:37.138Z,62.42
2022-11-28T14:33:33.090Z,62.65
2022-11-28T14:36:09.453Z,62.82
2022-11-28T14:38:42.413Z,62.25
2022-11-28T14:41:12.861Z,61.90
2022-11-28T14:43:47.428Z,62.24
2022-11-28T14:46:19.532Z,61.97
2022-11-28T14:48:59.541Z,61.95
2022-11-28T14:51:45.615Z,62.49
2022-11-28T14:54:37.981Z,63.77
2022-11-28T14:57:19.691Z,62.76
2022-11-28T14:59:50.704Z,62.96
2022-11-28T15:02:29.490Z,62.54
2022-11-28T15:05:19.578Z,61.90
2022-11-28T15:08:06.115Z,62.51
2022-11-28T15:10:48.871Z,62.42
2022-11-28T15:13:40.618Z,62.70
2022-11-28T15:16:15.153Z,62.86
2022-11-28T15:18:51.889Z,63.51
2022-11-28T15:21:20.772Z,63.00
2022-11-28T15:23:47.766Z,62.50
2022-11-28T15:26:20.559Z,63.12
2022-11-28T15:28:47.437Z,63.21
2022-11-28T15:31:22.742Z,63.35
2022-11-28T15:33:50.997Z,63.36
2022-11-28T15:36:29.619Z,62.36
2022-11-28T15:38:57.181Z,63.11
2022-11-28T15:41:26.640Z,63.73
2022-11-28T15:43:56.284Z,63.34
2022-11-28T15:46:32.445Z,64.05
2022-11-28T15:49:01.787Z,64.34
2022-11-28T15:51:33.645Z,63.62
2022-11-28T15:54:03.430Z,64.25
2022-11-28T15:56:30.482Z,64.15
2022-11-28T15:58:57.381Z,64.87
2022-11-28T16:01:26.411Z,65.01
2022-11-28T16:04:07.268Z,65.97
2022-11-28T16:06:36.910Z,65.44
2022-11-28T16:09:19.436Z,64.21
2022-11-28T16:11:51.915Z,64.51
2022-11-28T16:14:42.820Z,65.13
2022-11-28T16:17:27.359Z,65.57
2022-11-28T16:19:56.200Z,65.09
2022-11-28T16:22:33.895Z,65.24
2022-11-28T16:25:13.255Z,65.65
2022-11-28T16:27:42.938Z,65.45
2022-11-28T16:30:27.204Z,65.35
2022-11-28T16:32:55.714Z,65.20
2022-11-28T16:35:28.715Z,65.60
2022-11-28T16:38:25.288Z,65.49
2022-11-28T16:41:01.391Z,65.68
2022-11-28T16:43:40.245Z,66.18
2022-11-28T16:46:30.996Z,66.68
2022-11-28T16:48:59.556Z,66.74
2022-11-28T16:51:28.251Z,65.86
2022-11-28T16:53:59.687Z,66.12
2022-11-28T16:56:29.762Z,65.84
2022-11-28T16:59:33.912Z,65.27
2022-11-28T17:02:00.647Z,65.24
2022-11-28T17:04:29.891Z,65.94
2022-11-28T17:07:05.241Z,67.33
2022-11-28T17:09:33.909Z,66.70
2022-11-28T17:12:29.521Z,65.86
2022-11-28T17:14:58.321Z,65.96
2022-11-28T17:17:25.331Z,66.07
2022-11-28T17:19:52.135Z,65.65
2022-11-28T17:22:37.480Z,65.41
2022-11-28T17:25:16.141Z,65.35
2022-11-28T17:27:43.173Z,66.06
2022-11-28T17:30:17.557Z,66.10
2022-11-28T17:32:44.690Z,67.41
2022-11-28T17:35:22.997Z,66.87
2022-11-28T17:37:49.988Z,66.49
2022-11-28T17:40:36.633Z,65.93
2022-11-28T17:43:17.780Z,66.44
2022-11-28T17:45:46.740Z,66.22
2022-11-28T17:48:15.972Z,66.63
2022-11-28T17:50:46.229Z,66.43
2022-11-28T17:53:18.239Z,66.34
2022-11-28T17:55:48.124Z,66.93
2022-11-28T17:58:17.671Z,66.66
2022-11-28T18:00:44.750Z,66.48
2022-11-28T18:03:12.233Z,66.03
2022-11-28T18:05:50.357Z,65.78
2022-11-28T18:08:21.928Z,65.15
2022-11-28T18:10:56.835Z,65.60
2022-11-28T18:13:25.726Z,66.03
2022-11-28T18:15:53.860Z,66.88
2022-11-28T18:18:24.024Z,67.04
2022-11-28T18:20:50.916Z,66.07
2022-11-28T18:23:18.243Z,66.66
2022-11-28T18:25:45.144Z,66.88
2022-11-28T18:28:18.463Z,67.43
2022-11-28T18:30:48.077Z,66.85
2022-11-28T18:33:18.008Z,67.33
2022-11-28T18:35:44.907Z,67.14
2022-11-28T18:38:12.232Z,66.20
2022-11-28T18:40:39.535Z,65.86
2022-11-28T18:43:06.516Z,65.74
2022-11-28T18:45:36.982Z,66.49
2022-11-28T18:48:03.770Z,66.96
2022-11-28T18:50:32.228Z,67.70
2022-11-28T18:53:02.159Z,69.09
2022-11-28T18:55:29.432Z,68.82
2022-11-28T18:57:56.100Z,68.93
2022-11-28T19:00:22.949Z,68.67
2022-11-28T19:02:49.759Z,68.52
2022-11-28T19:05:17.176Z,68.04
2022-11-28T19:07:43.998Z,67.92
2022-11-28T19:10:21.729Z,68.41
2022-11-28T19:12:48.431Z,70.00
2022-11-28T19:15:15.142Z,68.73
2022-11-28T19:17:42.516Z,67.76
2022-11-28T19:20:11.073Z,67.68
2022-11-28T19:22:39.839Z,68.10
2022-11-28T19:25:07.623Z,68.77
2022-11-28T19:27:34.802Z,68.73
2022-11-28T19:30:03.601Z,66.46
2022-11-28T19:32:30.306Z,67.84
2022-11-28T19:34:57.071Z,69.09
2022-11-28T19:37:23.966Z,68.89
2022-11-28T19:39:51.812Z,67.61
2022-11-28T19:42:21.507Z,66.57
2022-11-28T19:44:48.551Z,66.40
2022-11-28T19:47:15.401Z,67.86
2022-11-28T19:49:42.664Z,68.51
2022-11-28T19:52:09.863Z,68.06
2022-11-28T19:54:37.185Z,67.21
2022-11-28T19:57:04.280Z,67.21
2022-11-28T19:59:33.477Z,67.55
2022-11-28T20:02:01.021Z,66.90
2022-11-28T20:04:27.772Z,65.97
2022-11-28T20:06:54.487Z,68.56
2022-11-28T20:09:21.246Z,68.49
2022-11-28T20:11:48.337Z,69.54
2022-11-28T20:14:17.982Z,68.94
2022-11-28T20:16:45.586Z,68.25
2022-11-28T20:19:12.405Z,66.84
2022-11-28T20:21:39.252Z,66.78
2022-11-28T20:24:08.230Z,67.02
2022-11-28T20:26:41.283Z,67.67
2022-11-28T20:29:12.015Z,68.60
2022-11-28T20:31:45.456Z,69.52
2022-11-28T20:34:16.133Z,69.17
2022-11-28T20:36:46.356Z,68.50
2022-11-28T20:39:15.716Z,68.65
2022-11-28T20:41:44.435Z,68.97
2022-11-28T20:44:11.119Z,68.45
2022-11-28T20:46:38.305Z,66.91
2022-11-28T20:49:08.044Z,66.51
2022-11-28T20:51:35.797Z,66.69
2022-11-28T20:54:04.975Z,67.45
2022-11-28T20:56:51.600Z,68.38
2022-11-28T20:59:22.008Z,67.53
2022-11-28T21:01:48.606Z,66.10
2022-11-28T21:04:17.072Z,66.81
2022-11-28T21:06:49.712Z,66.62
2022-11-28T21:09:20.100Z,66.63
2022-11-28T21:11:57.400Z,66.34
2022-11-28T21:14:28.842Z,66.33
2022-11-28T21:16:56.610Z,66.98
2022-11-28T21:19:23.673Z,67.01
2022-11-28T21:21:50.420Z,66.78
2022-11-28T21:24:17.229Z,65.95
2022-11-28T21:26:48.193Z,65.34
2022-11-28T21:29:19.854Z,67.29
2022-11-28T21:31:46.843Z,66.86
2022-11-28T21:34:15.448Z,66.80
2022-11-28T21:36:42.944Z,66.56
2022-11-28T21:39:19.940Z,67.59
2022-11-28T21:41:47.442Z,67.18
2022-11-28T21:44:14.118Z,67.18
2022-11-28T21:46:40.914Z,67.02
2022-11-28T21:49:07.718Z,66.96
2022-11-28T21:51:39.589Z,67.47
2022-11-28T21:54:06.398Z,67.78
2022-11-28T21:56:33.584Z,67.24
2022-11-28T21:59:02.795Z,66.35
2022-11-28T22:01:29.709Z,66.42
2022-11-28T22:04:02.364Z,66.07
2022-11-28T22:06:31.073Z,66.38
2022-11-28T22:08:57.943Z,67.56
2022-11-28T22:11:25.400Z,68.53
2022-11-28T22:13:52.893Z,67.83
2022-11-28T22:16:21.305Z,68.27
2022-11-28T22:18:49.735Z,67.94
2022-11-28T22:24:05.324Z,67.83
2022-11-28T22:26:32.241Z,67.79
2022-11-28T22:28:59.029Z,67.23
2022-11-28T22:31:25.989Z,67.24
2022-11-28T22:33:55.183Z,67.38
2022-11-28T22:36:23.126Z,67.00
2022-11-28T22:38:55.325Z,66.72
2022-11-28T22:41:28.851Z,68.32
2022-11-28T22:44:00.672Z,67.96
2022-11-28T22:46:28.809Z,68.44
2022-11-28T22:48:55.615Z,68.35
2022-11-28T22:51:24.451Z,67.09
2022-11-28T22:53:56.602Z,66.83
2022-11-28T22:56:26.249Z,68.20
2022-11-28T22:58:56.792Z,67.51
2022-11-28T23:01:27.007Z,67.76
2022-11-28T23:03:54.524Z,67.76
2022-11-28T23:06:25.783Z,66.92
2022-11-28T23:08:56.802Z,67.32
2022-11-28T23:11:28.759Z,67.82
2022-11-28T23:13:58.260Z,67.32
2022-11-28T23:16:34.971Z,70.51
2022-11-28T23:19:07.019Z,70.25
2022-11-28T23:21:36.382Z,68.42
2022-11-28T23:24:04.415Z,68.37
2022-11-28T23:26:32.128Z,69.82
2022-11-28T23:29:08.107Z,70.29
2022-11-28T23:31:40.697Z,69.63
2022-11-28T23:34:08.720Z,68.90
2022-11-28T23:36:42.465Z,67.76
2022-11-28T23:39:13.042Z,69.15
2022-11-28T23:41:43.631Z,69.18
2022-11-28T23:44:14.357Z,68.54
2022-11-28T23:46:41.731Z,69.35
2022-11-28T23:49:08.875Z,71.29
2022-11-28T23:51:36.051Z,71.48
2022-11-28T23:54:02.856Z,70.63
2022-11-28T23:56:32.361Z,71.70
2022-11-28T23:59:01.530Z,71.03
